Time;durP1;ratioP1;P1;durP2;ratioP2;P2;SDS_P1;SDS_P2;PMS_P1;PMS_P2;Temp;Humidity;BMP_temperature;BMP_pressure;BME280_temperature;BME280_humidity;BME280_pressure;Samples;Min_cycle;Max_cycle;Signal;HPM_P1;HPM_P2
2021/04/15 00:00:48;;;;;;;2.08;0.82;;;-0.60;85.60;;;;;;5094822;28;20020;-45
2021/04/15 00:03:22;;;;;;;1.15;0.80;;;-0.60;86.10;;;;;;5094839;28;20451;-43
2021/04/15 00:05:48;;;;;;;1.08;0.60;;;-0.50;86.20;;;;;;5094861;28;20024;-42
2021/04/15 00:08:15;;;;;;;4.40;1.10;;;-0.50;86.30;;;;;;5094679;28;20070;-45
2021/04/15 00:10:47;;;;;;;3.13;0.75;;;-0.50;86.70;;;;;;5080666;28;20052;-43
2021/04/15 00:13:25;;;;;;;1.63;0.80;;;-0.60;87.40;;;;;;5074022;28;20029;-45
2021/04/15 00:15:51;;;;;;;2.78;1.02;;;-0.60;87.20;;;;;;5074304;28;20373;-45
2021/04/15 00:18:17;;;;;;;0.60;0.60;;;-0.60;88.00;;;;;;5074080;28;20123;-42
2021/04/15 00:20:43;;;;;;;2.75;1.05;;;-0.60;87.90;;;;;;5074102;28;20052;-42
2021/04/15 00:23:09;;;;;;;1.65;1.00;;;-0.60;88.00;;;;;;5074171;28;20104;-44
2021/04/15 00:25:35;;;;;;;1.30;0.70;;;-0.60;88.50;;;;;;5073166;28;20036;-43
2021/04/15 00:28:00;;;;;;;4.28;0.90;;;-0.60;88.90;;;;;;5074176;28;20371;-44
2021/04/15 00:30:26;;;;;;;1.60;1.10;;;-0.60;89.00;;;;;;5073727;28;20547;-42
2021/04/15 00:32:52;;;;;;;1.20;0.65;;;-0.60;89.90;;;;;;5074033;28;20035;-43
2021/04/15 00:35:19;;;;;;;1.35;0.73;;;-0.60;89.90;;;;;;5073961;28;20384;-42
2021/04/15 00:37:45;;;;;;;1.40;0.80;;;-0.70;89.60;;;;;;5073868;28;20021;-46
2021/04/15 00:40:12;;;;;;;1.73;1.08;;;-0.60;90.30;;;;;;5072920;28;20025;-43
2021/04/15 00:42:38;;;;;;;0.70;0.70;;;-0.70;90.30;;;;;;5073679;28;20021;-45
2021/04/15 00:45:22;;;;;;;1.50;0.93;;;-0.60;90.30;;;;;;5073609;28;20016;-42
2021/04/15 00:48:09;;;;;;;2.80;1.02;;;-0.60;90.40;;;;;;5073653;28;20388;-42
2021/04/15 00:50:46;;;;;;;1.38;0.90;;;-0.60;90.50;;;;;;5076008;28;20029;-42
2021/04/15 00:53:14;;;;;;;1.30;1.08;;;-0.60;90.60;;;;;;5093869;28;20047;-43
2021/04/15 00:55:40;;;;;;;2.10;0.95;;;-0.60;90.80;;;;;;5092931;28;20049;-42
2021/04/15 00:58:06;;;;;;;1.45;0.85;;;-0.60;90.80;;;;;;5093857;28;20020;-43
2021/04/15 01:00:32;;;;;;;1.50;0.98;;;-0.60;90.80;;;;;;5093672;28;20096;-43
2021/04/15 01:03:00;;;;;;;1.67;1.05;;;-0.50;90.80;;;;;;5093701;28;20032;-42
2021/04/15 01:05:28;;;;;;;1.35;1.10;;;-0.50;90.80;;;;;;5092312;28;20443;-43
2021/04/15 01:07:54;;;;;;;2.45;1.00;;;-0.50;90.90;;;;;;5093443;28;20020;-44
2021/04/15 01:10:22;;;;;;;2.97;1.05;;;-0.50;91.20;;;;;;5082201;28;20024;-44
2021/04/15 01:13:11;;;;;;;2.78;1.15;;;-0.50;91.00;;;;;;5073274;28;20107;-43
2021/04/15 01:15:50;;;;;;;3.42;1.35;;;-0.50;91.10;;;;;;5072974;28;20100;-44
2021/04/15 01:18:41;;;;;;;2.25;1.00;;;-0.50;91.20;;;;;;5073003;28;20067;-43
2021/04/15 01:21:29;;;;;;;2.35;1.33;;;-0.40;91.70;;;;;;5064460;28;20068;-44
2021/04/15 01:24:28;;;;;;;3.65;1.10;;;-0.40;91.70;;;;;;5072194;28;20486;-46
2021/04/15 01:27:12;;;;;;;1.83;0.90;;;-0.40;91.50;;;;;;5072283;28;20028;-43
2021/04/15 01:29:45;;;;;;;1.40;1.00;;;-0.40;92.30;;;;;;5072955;28;20056;-42
2021/04/15 01:32:22;;;;;;;1.65;1.10;;;-0.40;91.90;;;;;;5072935;28;20046;-43
2021/04/15 01:34:54;;;;;;;2.42;1.23;;;-0.40;91.80;;;;;;5072582;28;20029;-43
2021/04/15 01:37:48;;;;;;;3.63;0.93;;;-0.40;92.00;;;;;;5072982;28;20024;-44
2021/04/15 01:40:24;;;;;;;2.47;1.23;;;-0.40;92.30;;;;;;5071837;28;20105;-44
2021/04/15 01:43:05;;;;;;;;;;;-0.40;92.10;;;;;;5073149;28;20056;-44
2021/04/15 01:45:30;;;;;;;1.70;1.13;;;-0.40;93.90;;;;;;5072845;28;20002;-44
2021/04/15 01:48:06;;;;;;;2.15;1.10;;;-0.40;92.70;;;;;;5072718;28;20471;-44
2021/04/15 01:50:56;;;;;;;1.67;0.90;;;-0.40;92.10;;;;;;5073496;28;20463;-43
2021/04/15 01:53:46;;;;;;;1.85;0.90;;;-0.50;92.50;;;;;;5092196;28;20376;-44
2021/04/15 01:56:25;;;;;;;3.85;0.93;;;-0.50;92.50;;;;;;5091887;28;20032;-44
2021/04/15 01:59:08;;;;;;;2.10;1.10;;;-0.50;93.20;;;;;;5092825;28;20028;-43
2021/04/15 02:01:40;;;;;;;2.00;1.23;;;-0.50;92.90;;;;;;5092575;28;20028;-42
2021/04/15 02:04:08;;;;;;;3.40;1.30;;;-0.50;93.00;;;;;;5092542;28;20024;-44
2021/04/15 02:06:42;;;;;;;2.35;1.20;;;-0.50;93.00;;;;;;5092754;28;20036;-42
2021/04/15 02:09:12;;;;;;;4.15;1.42;;;-0.50;93.80;;;;;;5092759;28;20032;-42
2021/04/15 02:11:53;;;;;;;5.13;1.23;;;-0.50;94.30;;;;;;5051772;28;20111;-42
2021/04/15 02:14:22;;;;;;;2.15;1.23;;;-0.60;93.70;;;;;;5050261;28;20488;-44
2021/04/15 02:16:50;;;;;;;2.10;1.15;;;-0.60;93.90;;;;;;5052149;28;20057;-42
2021/04/15 02:19:20;;;;;;;2.33;1.20;;;-0.60;93.80;;;;;;5052486;28;20029;-42
2021/04/15 02:22:21;;;;;;;2.90;1.08;;;-0.60;94.60;;;;;;5052418;28;20040;-42
2021/04/15 02:24:57;;;;;;;2.65;1.17;;;-0.60;94.90;;;;;;5051379;28;20060;-43
2021/04/15 02:27:36;;;;;;;3.13;1.20;;;-0.60;94.50;;;;;;5051294;28;20040;-44
2021/04/15 02:30:21;;;;;;;3.95;1.50;;;-0.60;94.60;;;;;;5052303;28;20268;-42
2021/04/15 02:33:48;;;;;;;1.13;0.85;;;-0.60;94.50;;;;;;5052146;28;20100;-43
2021/04/15 02:36:15;;;;;;;3.40;1.08;;;-0.60;95.40;;;;;;5027831;28;20072;-44
2021/04/15 02:38:56;;;;;;;2.47;1.00;;;-0.60;95.20;;;;;;5056167;28;20064;-43
2021/04/15 02:41:29;;;;;;;1.98;1.17;;;-0.60;95.30;;;;;;5055271;28;20025;-42
2021/04/15 02:44:10;;;;;;;3.50;1.30;;;-0.60;95.60;;;;;;5056062;28;20035;-43
2021/04/15 02:46:48;;;;;;;1.02;0.93;;;-0.60;96.10;;;;;;5056219;28;20025;-42
2021/04/15 02:49:17;;;;;;;3.33;1.20;;;-0.60;97.10;;;;;;5055875;28;20033;-43
2021/04/15 02:51:54;;;;;;;2.03;1.45;;;-0.60;97.10;;;;;;5079325;28;20035;-43
2021/04/15 02:54:26;;;;;;;4.97;1.20;;;-0.60;96.40;;;;;;5096117;28;20040;-42
2021/04/15 02:56:53;;;;;;;1.85;1.20;;;-0.60;96.50;;;;;;5095213;28;20039;-43
2021/04/15 02:59:27;;;;;;;3.58;1.30;;;-0.70;96.70;;;;;;5096373;28;20406;-42
2021/04/15 03:02:00;;;;;;;1.85;1.23;;;-0.60;96.80;;;;;;5095471;28;20013;-42
2021/04/15 03:04:25;;;;;;;1.77;1.17;;;-0.70;96.40;;;;;;5095646;28;20020;-42
2021/04/15 03:06:55;;;;;;;2.28;1.30;;;-0.60;97.50;;;;;;5095975;28;20513;-42
2021/04/15 03:09:21;;;;;;;3.85;1.52;;;-0.60;98.10;;;;;;5094114;28;20103;-43
2021/04/15 03:11:51;;;;;;;1.92;1.35;;;-0.60;97.50;;;;;;5073470;28;20111;-43
2021/04/15 03:14:26;;;;;;;2.20;1.20;;;-0.60;97.40;;;;;;5075311;28;20027;-44
2021/04/15 03:16:58;;;;;;;2.47;1.10;;;-0.60;97.40;;;;;;5074955;28;20049;-44
2021/04/15 03:19:29;;;;;;;3.60;1.50;;;-0.70;98.00;;;;;;5075487;28;20093;-42
2021/04/15 03:22:06;;;;;;;3.22;1.20;;;-0.60;98.90;;;;;;5075444;28;20134;-45
2021/04/15 03:24:35;;;;;;;6.05;1.40;;;-0.60;98.20;;;;;;5074428;28;20024;-48
2021/04/15 03:27:45;;;;;;;5.05;1.52;;;-0.60;97.90;;;;;;5075017;28;20025;-45
2021/04/15 03:30:22;;;;;;;1.98;1.25;;;-0.60;98.10;;;;;;5075135;28;20052;-44
2021/04/15 03:33:04;;;;;;;4.25;1.20;;;-0.60;98.60;;;;;;5075202;28;20032;-44
2021/04/15 03:35:39;;;;;;;2.47;1.27;;;-0.60;99.00;;;;;;5074782;28;20062;-42
2021/04/15 03:38:14;;;;;;;2.85;1.30;;;-0.50;99.40;;;;;;5075206;28;20048;-42
2021/04/15 03:40:46;;;;;;;3.45;1.48;;;-0.40;98.90;;;;;;5073895;28;20024;-43
2021/04/15 03:43:18;;;;;;;2.00;1.25;;;-0.40;99.10;;;;;;5075081;28;20036;-44
2021/04/15 03:45:49;;;;;;;2.08;1.40;;;-0.30;99.30;;;;;;5074818;28;20081;-44
2021/04/15 03:48:25;;;;;;;6.78;1.73;;;-0.30;99.90;;;;;;5074444;28;20021;-42
2021/04/15 03:50:59;;;;;;;1.80;1.00;;;-0.30;99.60;;;;;;5079279;28;20020;-44
2021/04/15 03:53:32;;;;;;;2.83;1.50;;;-0.30;99.70;;;;;;5094724;28;20026;-44
2021/04/15 03:56:02;;;;;;;3.25;1.83;;;-0.30;99.00;;;;;;5093867;28;20107;-44
2021/04/15 03:58:36;;;;;;;4.40;1.67;;;-0.20;99.00;;;;;;5094994;28;20392;-44
2021/04/15 04:01:09;;;;;;;3.05;1.48;;;-0.20;99.70;;;;;;5094891;28;20020;-42
2021/04/15 04:03:39;;;;;;;4.20;1.33;;;-0.20;99.70;;;;;;5094880;28;20028;-43
2021/04/15 04:06:18;;;;;;;3.33;1.65;;;-0.20;99.90;;;;;;5094537;28;20024;-43
2021/04/15 04:08:59;;;;;;;6.22;1.67;;;-0.20;99.90;;;;;;5094624;28;20383;-43
2021/04/15 04:11:31;;;;;;;4.07;1.77;;;-0.10;99.90;;;;;;5070399;28;20028;-44
2021/04/15 04:14:01;;;;;;;2.88;1.70;;;-0.10;99.90;;;;;;5073346;28;20046;-43
2021/04/15 04:16:39;;;;;;;6.18;1.88;;;-0.10;99.90;;;;;;5073421;28;20037;-48
2021/04/15 04:19:16;;;;;;;5.90;1.85;;;-0.10;99.50;;;;;;5073761;28;20446;-44
2021/04/15 04:22:06;;;;;;;1.50;1.10;;;0.00;99.90;;;;;;5073760;28;20020;-44
2021/04/15 04:24:41;;;;;;;4.45;2.03;;;0.00;99.90;;;;;;5073086;28;20024;-43
2021/04/15 04:27:29;;;;;;;5.32;1.70;;;0.00;99.80;;;;;;5073957;28;20021;-42
2021/04/15 04:30:14;;;;;;;2.67;1.50;;;0.10;99.90;;;;;;5073661;28;20051;-43
2021/04/15 04:32:42;;;;;;;4.07;2.10;;;0.10;99.90;;;;;;5073726;28;20029;-43
2021/04/15 04:35:15;;;;;;;3.50;1.90;;;0.20;99.90;;;;;;5073477;28;20549;-43
2021/04/15 04:37:46;;;;;;;4.40;1.80;;;0.30;99.90;;;;;;5073757;28;20111;-44
2021/04/15 04:40:16;;;;;;;5.78;1.80;;;0.30;99.90;;;;;;5072599;28;20031;-46
2021/04/15 04:42:51;;;;;;;4.45;2.00;;;0.40;99.90;;;;;;5073023;28;20048;-43
2021/04/15 04:45:18;;;;;;;7.90;2.75;;;0.40;99.50;;;;;;5073517;28;20158;-42
2021/04/15 04:48:05;;;;;;;4.75;2.13;;;0.50;99.90;;;;;;5073497;28;20039;-43
2021/04/15 04:50:42;;;;;;;6.40;2.53;;;0.60;99.90;;;;;;5075079;28;20391;-44
2021/04/15 04:53:43;;;;;;;5.35;2.70;;;0.60;99.90;;;;;;5093569;28;20028;-43
2021/04/15 04:56:29;;;;;;;13.05;3.72;;;0.70;99.50;;;;;;5069055;28;20044;-50
2021/04/15 04:59:00;;;;;;;5.10;2.22;;;0.80;99.40;;;;;;5092159;28;20020;-47
2021/04/15 05:01:26;;;;;;;8.95;2.67;;;0.80;99.90;;;;;;5093305;28;20111;-45
2021/04/15 05:03:59;;;;;;;3.42;1.95;;;0.90;99.90;;;;;;5093269;28;20067;-44
2021/04/15 05:06:28;;;;;;;4.63;2.20;;;1.00;99.90;;;;;;5093461;28;20020;-44
2021/04/15 05:09:32;;;;;;;5.82;2.20;;;1.10;99.90;;;;;;5079671;28;20418;-43
2021/04/15 05:11:59;;;;;;;5.13;2.47;;;1.20;99.90;;;;;;5059773;28;20059;-45
2021/04/15 05:14:27;;;;;;;6.55;2.03;;;1.30;99.90;;;;;;5061074;28;20035;-45
2021/04/15 05:17:03;;;;;;;3.45;2.22;;;1.40;99.90;;;;;;5054154;28;20132;-46
2021/04/15 05:19:29;;;;;;;;;;;1.40;99.90;;;;;;5053447;28;20099;-45
2021/04/15 05:21:56;;;;;;;4.82;2.42;;;1.50;99.90;;;;;;5052493;28;19912;-47
2021/04/15 05:24:28;;;;;;;5.13;3.15;;;1.60;99.90;;;;;;5053094;28;20025;-47
2021/04/15 05:26:57;;;;;;;4.93;2.72;;;1.70;99.90;;;;;;5052585;28;20111;-51
2021/04/15 05:29:26;;;;;;;3.30;1.90;;;1.80;99.90;;;;;;5052885;28;20028;-46
2021/04/15 05:31:54;;;;;;;5.75;2.80;;;1.80;99.90;;;;;;5052789;28;20021;-45
2021/04/15 05:34:32;;;;;;;5.63;2.90;;;1.90;99.90;;;;;;5052849;28;20029;-47
2021/04/15 05:37:04;;;;;;;7.47;3.13;;;2.00;99.90;;;;;;5052537;28;20384;-46
2021/04/15 05:39:33;;;;;;;5.50;3.03;;;2.10;99.80;;;;;;5051726;28;20020;-44
2021/04/15 05:42:06;;;;;;;5.35;2.67;;;2.20;99.90;;;;;;5052480;28;20066;-43
2021/04/15 05:44:59;;;;;;;5.15;2.88;;;2.30;99.90;;;;;;5052692;28;20021;-43
2021/04/15 05:47:31;;;;;;;5.32;2.45;;;2.40;99.90;;;;;;5052513;28;20445;-44
2021/04/15 05:50:05;;;;;;;3.83;2.08;;;2.60;99.50;;;;;;5052573;28;20029;-46
2021/04/15 05:52:43;;;;;;;7.43;2.65;;;2.70;99.50;;;;;;5087857;28;20027;-47
2021/04/15 05:55:16;;;;;;;5.00;2.67;;;2.80;98.70;;;;;;5091899;28;20024;-44
2021/04/15 05:57:46;;;;;;;7.47;3.10;;;2.90;98.20;;;;;;5092620;28;20027;-44
2021/04/15 06:00:19;;;;;;;9.48;3.10;;;3.10;98.50;;;;;;5092365;28;20024;-44
2021/04/15 06:03:17;;;;;;;6.70;3.22;;;3.10;99.50;;;;;;5092441;28;20021;-44
2021/04/15 06:05:53;;;;;;;7.65;3.20;;;3.20;97.90;;;;;;5092417;28;20095;-44
2021/04/15 06:08:19;;;;;;;9.93;3.40;;;3.30;98.10;;;;;;5092667;28;20028;-44
2021/04/15 06:10:45;;;;;;;4.65;2.78;;;3.40;97.10;;;;;;5081430;28;20498;-45
2021/04/15 06:13:48;;;;;;;7.50;2.85;;;3.60;97.10;;;;;;5079023;28;20029;-45
2021/04/15 06:16:35;;;;;;;6.53;3.22;;;3.80;96.50;;;;;;5046620;28;20235;-45
2021/04/15 06:19:17;;;;;;;8.13;2.70;;;4.00;96.30;;;;;;5078840;28;20051;-44
2021/04/15 06:21:46;;;;;;;7.53;2.78;;;4.10;95.60;;;;;;5078740;28;20032;-45
2021/04/15 06:24:17;;;;;;;3.88;2.53;;;4.20;94.70;;;;;;5078994;28;20031;-43
2021/04/15 06:26:49;;;;;;;7.00;2.65;;;4.40;94.40;;;;;;5077977;28;20027;-44
2021/04/15 06:29:33;;;;;;;5.03;2.97;;;4.50;93.90;;;;;;5078872;28;20059;-43
2021/04/15 06:32:04;;;;;;;8.02;2.78;;;4.60;93.40;;;;;;5078761;28;20027;-45
2021/04/15 06:34:31;;;;;;;3.63;2.60;;;4.70;93.00;;;;;;5078506;28;20055;-44
2021/04/15 06:37:18;;;;;;;4.28;2.67;;;4.90;92.70;;;;;;5078726;28;20017;-44
2021/04/15 06:39:50;;;;;;;4.68;2.97;;;5.00;91.90;;;;;;5077965;28;20020;-43
2021/04/15 06:42:53;;;;;;;3.88;2.85;;;5.20;91.70;;;;;;5078465;28;20449;-45
2021/04/15 06:45:40;;;;;;;6.63;2.50;;;5.30;90.80;;;;;;5078815;28;20017;-43
2021/04/15 06:48:24;;;;;;;;;;;5.50;90.50;;;;;;5079279;28;20036;-45
2021/04/15 06:51:08;;;;;;;4.55;2.00;;;5.70;90.00;;;;;;5083366;28;19904;-43
2021/04/15 06:54:07;;;;;;;4.43;2.40;;;5.90;89.60;;;;;;5098891;28;20020;-43
2021/04/15 06:57:05;;;;;;;5.85;2.53;;;6.00;87.00;;;;;;5098089;28;20038;-44
2021/04/15 07:00:03;;;;;;;5.03;2.50;;;6.20;85.90;;;;;;5099185;28;20037;-43
2021/04/15 07:02:51;;;;;;;3.28;2.20;;;6.40;85.30;;;;;;5099109;28;20016;-43
2021/04/15 07:05:23;;;;;;;4.65;2.28;;;6.70;84.30;;;;;;5099098;28;20432;-43
2021/04/15 07:08:20;;;;;;;3.65;2.25;;;7.00;82.50;;;;;;5099056;28;20032;-43
2021/04/15 07:11:09;;;;;;;6.15;1.95;;;7.40;82.10;;;;;;5084427;28;20479;-43
2021/04/15 07:14:19;;;;;;;5.10;2.13;;;7.70;81.50;;;;;;5078593;28;20025;-45
2021/04/15 07:17:29;;;;;;;4.32;1.98;;;7.90;78.90;;;;;;5078402;28;20500;-45
2021/04/15 07:20:21;;;;;;;7.53;2.60;;;8.10;76.90;;;;;;5078716;28;20024;-44
2021/04/15 07:23:11;;;;;;;4.22;2.55;;;8.10;77.90;;;;;;5075159;28;20021;-43
2021/04/15 07:26:16;;;;;;;4.93;2.00;;;8.30;77.10;;;;;;5074362;28;20036;-45
2021/04/15 07:29:15;;;;;;;3.42;1.98;;;8.50;74.80;;;;;;5075363;28;20016;-45
2021/04/15 07:32:04;;;;;;;5.68;1.65;;;8.60;75.00;;;;;;5075373;28;20074;-45
2021/04/15 07:35:07;;;;;;;3.58;1.63;;;8.90;73.10;;;;;;5075203;28;20027;-44
2021/04/15 07:37:53;;;;;;;2.88;1.75;;;9.10;71.80;;;;;;5074970;28;20107;-45
2021/04/15 07:40:44;;;;;;;2.95;2.20;;;9.30;71.10;;;;;;5074192;28;20024;-45
2021/04/15 07:43:23;;;;;;;2.83;1.52;;;9.40;69.90;;;;;;5073760;28;20056;-44
2021/04/15 07:46:10;;;;;;;3.60;1.30;;;9.70;71.20;;;;;;5074937;28;20035;-45
2021/04/15 07:48:53;;;;;;;5.30;1.70;;;10.30;70.10;;;;;;5074957;28;20024;-44
2021/04/15 07:51:30;;;;;;;4.65;1.73;;;10.50;65.40;;;;;;5083472;28;20028;-45
2021/04/15 07:54:22;;;;;;;2.47;1.30;;;10.60;63.10;;;;;;5095151;28;20026;-43
2021/04/15 07:56:54;;;;;;;2.15;1.23;;;10.60;63.60;;;;;;5094783;28;20068;-45
2021/04/15 07:59:29;;;;;;;4.07;1.27;;;10.30;63.00;;;;;;5094950;28;20088;-44
2021/04/15 08:02:18;;;;;;;3.63;1.00;;;10.20;62.60;;;;;;5095051;28;20052;-43
2021/04/15 08:05:16;;;;;;;3.25;0.95;;;10.30;61.60;;;;;;5094762;28;20094;-44
2021/04/15 08:07:59;;;;;;;1.77;1.13;;;10.30;59.70;;;;;;5095072;28;20027;-45
2021/04/15 08:10:43;;;;;;;1.30;0.63;;;10.20;59.30;;;;;;5083064;28;20060;-43
2021/04/15 08:13:27;;;;;;;1.40;0.65;;;10.30;60.40;;;;;;5074370;28;20035;-43
2021/04/15 08:16:11;;;;;;;3.63;1.10;;;10.60;60.70;;;;;;5074456;28;20078;-44
2021/04/15 08:19:05;;;;;;;2.28;0.80;;;10.80;57.90;;;;;;5074178;28;20106;-43
2021/04/15 08:21:48;;;;;;;2.45;1.00;;;10.70;57.40;;;;;;5074286;28;20032;-45
2021/04/15 08:24:33;;;;;;;2.50;0.50;;;10.50;59.00;;;;;;5074148;28;20083;-44
2021/04/15 08:27:41;;;;;;;4.40;1.05;;;10.50;58.00;;;;;;5072957;28;20107;-43
2021/04/15 08:30:22;;;;;;;3.60;0.88;;;10.60;57.00;;;;;;5074139;28;20031;-43
2021/04/15 08:33:08;;;;;;;2.92;0.60;;;10.80;57.60;;;;;;5074063;28;20024;-45
2021/04/15 08:35:54;;;;;;;1.45;0.75;;;11.40;56.80;;;;;;5074200;28;20025;-45
2021/04/15 08:38:34;;;;;;;1.63;1.10;;;11.60;56.00;;;;;;5073838;28;20028;-44
2021/04/15 08:41:31;;;;;;;1.50;0.50;;;11.60;54.90;;;;;;5073106;28;20029;-44
2021/04/15 08:44:21;;;;;;;1.77;0.73;;;11.60;55.20;;;;;;5074039;28;20032;-44
2021/04/15 08:47:04;;;;;;;1.35;0.70;;;11.50;53.70;;;;;;5074044;28;20040;-44
2021/04/15 08:49:57;;;;;;;4.03;0.90;;;11.60;55.30;;;;;;5073827;28;20024;-44
2021/04/15 08:52:44;;;;;;;2.05;0.90;;;11.60;54.70;;;;;;5091245;28;20020;-45
2021/04/15 08:55:16;;;;;;;;;;;11.50;54.20;;;;;;5093477;28;20031;-43
2021/04/15 08:57:51;;;;;;;4.57;1.08;;;11.60;52.50;;;;;;5093934;28;20049;-45
2021/04/15 09:00:16;;;;;;;4.20;1.07;;;11.70;54.00;;;;;;5093857;28;20020;-44
2021/04/15 09:02:59;;;;;;;0.68;0.50;;;12.10;53.60;;;;;;5093938;28;20467;-44
2021/04/15 09:05:42;;;;;;;1.70;0.85;;;12.20;53.50;;;;;;5093673;28;20459;-45
2021/04/15 09:08:25;;;;;;;3.22;0.77;;;12.00;53.00;;;;;;5095051;28;20074;-46
2021/04/15 09:11:13;;;;;;;1.58;0.80;;;11.80;52.70;;;;;;5076318;28;20511;-44
2021/04/15 09:14:07;;;;;;;1.40;0.70;;;11.40;51.20;;;;;;5073148;28;20024;-45
2021/04/15 09:16:41;;;;;;;2.08;0.50;;;10.90;53.20;;;;;;5073030;28;20483;-43
2021/04/15 09:19:32;;;;;;;0.63;0.50;;;10.80;54.00;;;;;;5073228;28;20024;-43
2021/04/15 09:22:39;;;;;;;4.13;0.85;;;10.50;53.70;;;;;;5073172;28;20016;-45
2021/04/15 09:25:29;;;;;;;4.35;0.80;;;10.20;54.10;;;;;;5051307;28;20035;-45
2021/04/15 09:28:08;;;;;;;2.97;0.70;;;10.10;53.80;;;;;;5073054;28;20460;-44
2021/04/15 09:30:58;;;;;;;1.38;0.40;;;10.00;52.10;;;;;;5073057;28;20082;-43
2021/04/15 09:33:59;;;;;;;1.20;0.55;;;9.90;52.00;;;;;;5072978;28;20028;-43
2021/04/15 09:36:37;;;;;;;1.33;0.70;;;9.90;53.10;;;;;;5048084;28;20078;-43
2021/04/15 09:39:20;;;;;;;3.22;0.50;;;9.70;53.20;;;;;;5073010;28;20043;-45
2021/04/15 09:42:05;;;;;;;0.50;0.40;;;9.60;53.40;;;;;;5071603;28;20546;-44
2021/04/15 09:44:48;;;;;;;1.10;0.32;;;9.80;52.40;;;;;;5072459;28;20036;-44
2021/04/15 09:47:30;;;;;;;1.35;0.47;;;9.70;51.20;;;;;;5073013;28;20024;-43
2021/04/15 09:50:22;;;;;;;0.47;0.32;;;9.80;51.40;;;;;;5073831;28;20502;-46
2021/04/15 09:53:15;;;;;;;1.27;0.43;;;9.80;48.60;;;;;;5052946;28;20411;-43
2021/04/15 09:56:05;;;;;;;3.83;0.75;;;9.90;50.20;;;;;;5051668;28;20029;-43
2021/04/15 09:58:55;;;;;;;0.47;0.40;;;10.00;50.30;;;;;;5052618;28;20040;-43
2021/04/15 10:01:32;;;;;;;0.85;0.50;;;10.00;49.40;;;;;;5067838;28;20025;-43
2021/04/15 10:04:04;;;;;;;3.17;1.35;;;9.90;49.00;;;;;;5052796;28;20028;-43
2021/04/15 10:06:48;;;;;;;1.30;0.95;;;9.90;49.70;;;;;;5052645;28;20480;-46
2021/04/15 10:09:24;;;;;;;0.80;0.32;;;9.80;49.50;;;;;;5053167;28;20365;-46
2021/04/15 10:12:18;;;;;;;1.38;0.80;;;9.60;49.40;;;;;;5072546;28;20025;-44
2021/04/15 10:15:08;;;;;;;1.27;0.70;;;9.40;48.50;;;;;;5046333;28;20601;-44
2021/04/15 10:17:57;;;;;;;2.28;0.65;;;9.30;49.20;;;;;;5072322;28;20060;-43
2021/04/15 10:20:32;;;;;;;4.78;1.00;;;9.10;50.70;;;;;;5072330;28;20467;-44
2021/04/15 10:23:33;;;;;;;1.10;0.55;;;9.00;50.50;;;;;;5072553;28;20033;-45
2021/04/15 10:26:08;;;;;;;1.05;0.60;;;9.00;49.20;;;;;;5071501;28;20056;-43
2021/04/15 10:28:46;;;;;;;1.27;0.60;;;9.20;50.40;;;;;;5072276;28;20036;-43
2021/04/15 10:31:40;;;;;;;1.17;0.65;;;9.40;50.10;;;;;;5072417;28;20107;-45
2021/04/15 10:34:19;;;;;;;1.13;0.40;;;9.60;50.20;;;;;;5072478;28;20028;-45
2021/04/15 10:36:54;;;;;;;0.90;0.65;;;9.90;50.20;;;;;;5071808;28;20029;-45
2021/04/15 10:39:57;;;;;;;1.88;0.65;;;10.00;49.40;;;;;;5071485;28;20025;-44
2021/04/15 10:42:47;;;;;;;0.77;0.40;;;10.10;49.60;;;;;;4993194;28;20526;-44
2021/04/15 10:45:39;;;;;;;3.92;0.60;;;10.10;46.20;;;;;;5048455;28;20033;-43
2021/04/15 10:48:18;;;;;;;0.95;0.50;;;9.90;45.10;;;;;;5051545;28;20021;-47
2021/04/15 10:50:59;;;;;;;0.55;0.55;;;10.10;46.40;;;;;;5059177;28;20044;-45
2021/04/15 10:53:45;;;;;;;0.95;0.35;;;10.30;45.40;;;;;;5092166;28;20023;-45
2021/04/15 10:56:44;;;;;;;1.83;0.50;;;10.40;45.40;;;;;;5091298;28;20024;-44
2021/04/15 10:59:15;;;;;;;2.15;0.40;;;10.60;45.90;;;;;;5096103;28;20024;-45
2021/04/15 11:01:44;;;;;;;1.08;0.60;;;10.70;46.30;;;;;;5095933;28;20028;-43
2021/04/15 11:04:10;;;;;;;1.60;0.50;;;10.60;45.90;;;;;;5097145;28;20036;-44
2021/04/15 11:06:53;;;;;;;3.45;0.60;;;10.50;46.50;;;;;;5094415;28;20853;-43
2021/04/15 11:09:36;;;;;;;1.48;0.50;;;10.50;46.80;;;;;;5093524;28;20069;-45
2021/04/15 11:12:13;;;;;;;0.80;0.40;;;10.40;46.50;;;;;;5074201;28;20391;-44
2021/04/15 11:14:46;;;;;;;0.55;0.30;;;10.30;46.10;;;;;;5075156;28;20048;-46
2021/04/15 11:17:26;;;;;;;1.25;0.60;;;10.30;47.60;;;;;;5075168;28;20446;-44
2021/04/15 11:20:18;;;;;;;5.50;0.93;;;10.30;47.00;;;;;;5075576;28;20016;-44
2021/04/15 11:23:02;;;;;;;1.30;0.70;;;10.60;47.60;;;;;;5075258;28;20024;-44
2021/04/15 11:25:42;;;;;;;0.57;0.55;;;10.70;47.00;;;;;;5074432;28;20017;-46
2021/04/15 11:28:13;;;;;;;1.35;0.82;;;10.70;45.50;;;;;;5075314;28;20046;-43
2021/04/15 11:30:45;;;;;;;1.42;0.55;;;10.80;47.00;;;;;;5074957;28;20021;-43
2021/04/15 11:33:29;;;;;;;1.40;0.60;;;10.70;46.60;;;;;;5075181;28;20410;-43
2021/04/15 11:36:18;;;;;;;0.77;0.50;;;10.50;46.20;;;;;;5074991;28;20025;-48
2021/04/15 11:38:47;;;;;;;1.70;0.50;;;10.40;46.90;;;;;;5075204;28;20454;-48
2021/04/15 11:41:25;;;;;;;1.15;0.40;;;10.40;47.60;;;;;;5074253;28;20055;-45
2021/04/15 11:44:04;;;;;;;2.50;0.50;;;10.40;47.60;;;;;;5073806;28;20016;-45
2021/04/15 11:46:51;;;;;;;0.45;0.40;;;10.40;48.20;;;;;;5074582;28;20032;-45
2021/04/15 11:49:19;;;;;;;5.20;0.80;;;10.30;48.50;;;;;;5075236;28;20020;-45
2021/04/15 11:52:12;;;;;;;2.10;0.50;;;10.40;49.20;;;;;;5086775;28;20137;-44
2021/04/15 11:54:53;;;;;;;2.15;0.50;;;10.20;49.10;;;;;;5100281;28;20070;-44
2021/04/15 11:57:38;;;;;;;2.15;0.50;;;9.90;50.40;;;;;;5094725;28;20146;-46
2021/04/15 12:00:06;;;;;;;0.95;0.43;;;9.70;51.00;;;;;;5095080;28;20044;-44
2021/04/15 12:02:57;;;;;;;0.47;0.40;;;9.60;51.30;;;;;;5094623;28;20471;-43
2021/04/15 12:05:37;;;;;;;2.63;0.57;;;9.90;51.70;;;;;;5089142;28;20032;-44
2021/04/15 12:08:32;;;;;;;1.98;0.70;;;10.00;51.50;;;;;;5094185;28;20028;-45
2021/04/15 12:11:01;;;;;;;2.03;1.23;;;10.20;50.60;;;;;;5078385;28;20025;-44
2021/04/15 12:13:37;;;;;;;4.57;2.03;;;10.20;50.70;;;;;;5074414;28;20027;-48
2021/04/15 12:16:13;;;;;;;3.65;1.90;;;10.30;50.50;;;;;;5074164;28;20120;-50
2021/04/15 12:18:46;;;;;;;6.20;1.45;;;10.30;50.50;;;;;;5074140;28;20062;-50
2021/04/15 12:21:26;;;;;;;3.03;1.08;;;10.40;50.60;;;;;;5072867;28;20068;-50
2021/04/15 12:24:19;;;;;;;0.93;0.60;;;10.30;48.50;;;;;;5073275;28;20541;-44
2021/04/15 12:27:05;;;;;;;2.85;0.70;;;10.10;47.50;;;;;;5068079;28;20044;-45
2021/04/15 12:29:43;;;;;;;1.27;0.70;;;10.00;48.70;;;;;;5073696;28;20029;-46
2021/04/15 12:32:39;;;;;;;3.75;1.10;;;9.80;49.60;;;;;;5073736;28;20033;-42
2021/04/15 12:35:10;;;;;;;3.13;0.73;;;9.60;50.20;;;;;;5073894;28;20408;-43
2021/04/15 12:37:44;;;;;;;1.73;0.70;;;9.40;50.50;;;;;;5073481;28;20024;-47
2021/04/15 12:40:34;;;;;;;1.00;0.60;;;9.40;51.20;;;;;;5073184;28;20017;-43
2021/04/15 12:43:17;;;;;;;2.08;0.57;;;9.30;51.00;;;;;;5073928;28;20021;-43
2021/04/15 12:45:55;;;;;;;2.60;1.00;;;9.10;51.00;;;;;;5073794;28;20031;-43
2021/04/15 12:48:47;;;;;;;2.17;0.80;;;9.00;51.20;;;;;;5072495;28;20024;-45
2021/04/15 12:51:18;;;;;;;0.82;0.55;;;8.90;51.40;;;;;;5081300;28;20025;-44
2021/04/15 12:53:46;;;;;;;2.05;0.68;;;8.80;51.60;;;;;;5092446;28;20031;-45
2021/04/15 12:56:16;;;;;;;2.15;0.45;;;8.80;51.80;;;;;;5092832;28;20031;-44
2021/04/15 12:58:44;;;;;;;1.27;0.57;;;8.80;52.10;;;;;;5093531;28;20379;-45
2021/04/15 13:01:09;;;;;;;1.13;0.80;;;8.80;52.00;;;;;;5093888;28;20541;-45
2021/04/15 13:03:38;;;;;;;2.63;1.00;;;8.90;52.40;;;;;;5484359;22;20049;-45
2021/04/15 13:06:15;;;;;;;3.00;0.80;;;8.80;52.20;;;;;;5053740;28;20427;-46
2021/04/15 13:09:23;;;;;;;2.83;0.60;;;8.80;52.20;;;;;;5053197;28;20107;-45
2021/04/15 13:11:49;;;;;;;2.00;1.08;;;8.70;52.10;;;;;;5033363;28;20036;-46
2021/04/15 13:14:33;;;;;;;1.48;0.77;;;8.70;52.30;;;;;;5033271;28;20389;-44
2021/04/15 13:16:59;;;;;;;1.80;0.90;;;8.70;52.40;;;;;;5015128;28;20029;-43
2021/04/15 13:19:24;;;;;;;1.33;0.70;;;8.70;52.20;;;;;;5032961;28;20026;-44
2021/04/15 13:22:11;;;;;;;1.33;0.80;;;8.60;52.10;;;;;;5032763;28;20491;-43
2021/04/15 13:24:47;;;;;;;1.70;0.70;;;8.60;52.50;;;;;;5032421;28;20022;-43
2021/04/15 13:27:38;;;;;;;0.77;0.68;;;8.60;52.70;;;;;;5032975;28;20034;-44
2021/04/15 13:30:21;;;;;;;3.53;1.00;;;8.50;52.70;;;;;;5033227;28;20026;-43
2021/04/15 13:33:13;;;;;;;1.33;0.60;;;8.50;51.60;;;;;;5032789;28;20022;-43
2021/04/15 13:35:53;;;;;;;1.77;0.63;;;8.40;51.40;;;;;;5032839;28;20040;-44
2021/04/15 13:38:28;;;;;;;1.35;0.70;;;8.20;51.20;;;;;;5032803;28;20029;-43
2021/04/15 13:41:08;;;;;;;1.15;0.52;;;8.20;51.70;;;;;;5032104;28;20045;-44
2021/04/15 13:43:52;;;;;;;0.88;0.70;;;8.20;51.90;;;;;;5032897;28;20029;-43
2021/04/15 13:49:00;;;;;;;1.90;0.90;;;8.30;52.00;;;;;;5032507;28;20025;-43
2021/04/15 13:51:28;;;;;;;1.05;0.93;;;8.30;52.00;;;;;;5042077;28;20534;-42
2021/04/15 13:53:58;;;;;;;1.83;0.80;;;8.40;52.20;;;;;;5034903;28;20140;-43
2021/04/15 13:56:35;;;;;;;1.35;0.60;;;8.50;52.10;;;;;;5031479;28;20109;-43
2021/04/15 13:59:03;;;;;;;2.10;1.00;;;8.60;52.00;;;;;;5032512;28;20372;-44